Time;durP1;ratioP1;P1;durP2;ratioP2;P2;SDS_P1;SDS_P2;PMS_P1;PMS_P2;Temp;Humidity;BMP_temperature;BMP_pressure;BME280_temperature;BME280_humidity;BME280_pressure;Samples;Min_cycle;Max_cycle;Signal;HPM_P1;HPM_P2
2022/12/28 00:02:17;;;;;;;8.95;4.30;;;;;;;4.57;100.00;101354.78;4987408;28;20046;-82
2022/12/28 00:04:45;;;;;;;9.88;4.30;;;;;;;4.55;100.00;101359.06;4961645;28;20065;-82
2022/12/28 00:07:12;;;;;;;8.85;4.07;;;;;;;4.54;100.00;101347.72;4983634;28;20053;-82
2022/12/28 00:09:40;;;;;;;12.13;4.25;;;;;;;4.53;100.00;101348.56;4994845;28;20047;-82
2022/12/28 00:12:07;;;;;;;10.68;4.55;;;;;;;4.52;100.00;101354.63;4965512;28;20042;-82
2022/12/28 00:14:36;;;;;;;10.68;4.60;;;;;;;4.50;100.00;101343.25;4979558;28;20043;-82
2022/12/28 00:17:04;;;;;;;13.80;4.95;;;;;;;4.48;100.00;101330.13;4985864;28;20837;-82
2022/12/28 00:19:31;;;;;;;10.52;4.45;;;;;;;4.48;100.00;101326.66;4963359;28;20050;-82
2022/12/28 00:21:58;;;;;;;8.77;4.70;;;;;;;4.47;100.00;101325.72;4989527;28;20484;-83
2022/12/28 00:24:26;;;;;;;9.90;4.75;;;;;;;4.47;100.00;101317.91;4990147;28;20054;-83
2022/12/28 00:26:55;;;;;;;13.75;4.03;;;;;;;4.46;100.00;101308.31;4964185;28;20050;-83
2022/12/28 00:29:23;;;;;;;10.48;5.50;;;;;;;4.44;100.00;101304.75;4981388;28;20061;-82
2022/12/28 00:31:50;;;;;;;14.90;4.25;;;;;;;4.44;100.00;101299.53;4993329;28;20041;-83
2022/12/28 00:34:18;;;;;;;8.85;4.95;;;;;;;4.43;100.00;101304.69;4986703;28;20523;-84
2022/12/28 00:36:49;;;;;;;9.40;4.78;;;;;;;4.42;100.00;101288.16;4957150;28;20057;-83
2022/12/28 00:39:39;;;;;;;9.95;4.43;;;;;;;4.41;100.00;101290.72;4994754;28;20058;-83
2022/12/28 00:42:06;;;;;;;10.98;4.70;;;;;;;4.41;100.00;101277.66;4964375;28;20054;-83
2022/12/28 00:44:36;;;;;;;6.43;4.53;;;;;;;4.40;100.00;101284.59;4993576;28;20054;-83
2022/12/28 00:47:03;;;;;;;10.13;4.88;;;;;;;4.39;100.00;101271.50;4992390;28;20049;-81
2022/12/28 00:49:30;;;;;;;12.32;4.68;;;;;;;4.39;100.00;101267.19;5000709;28;20054;-83
2022/12/28 00:51:59;;;;;;;7.10;4.75;;;;;;;4.39;100.00;101245.41;4969617;28;20054;-83
2022/12/28 00:54:27;;;;;;;12.90;5.05;;;;;;;4.37;100.00;101247.97;4996898;28;20061;-83
2022/12/28 00:56:57;;;;;;;8.77;4.75;;;;;;;4.37;100.00;101239.25;4978428;28;20046;-82
2022/12/28 00:59:24;;;;;;;13.57;4.72;;;;;;;4.37;100.00;101237.53;4945456;28;20061;-82
2022/12/28 01:01:52;;;;;;;12.98;5.05;;;;;;;4.37;100.00;101227.09;4991082;28;20050;-83
2022/12/28 01:04:19;;;;;;;10.48;5.57;;;;;;;4.36;100.00;101220.09;4984002;28;20042;-83
2022/12/28 01:06:47;;;;;;;8.65;5.07;;;;;;;4.38;100.00;101214.94;4971754;28;20053;-83
2022/12/28 01:09:14;;;;;;;9.25;5.07;;;;;;;4.37;100.00;101205.34;4960566;28;20042;-83
2022/12/28 01:11:43;;;;;;;10.98;5.35;;;;;;;4.38;100.00;101204.50;5011293;28;20062;-83
2022/12/28 01:14:10;;;;;;;9.90;5.03;;;;;;;4.37;100.00;101187.06;4944479;28;20051;-83
2022/12/28 01:16:38;;;;;;;13.38;5.55;;;;;;;4.38;100.00;101179.28;4994345;28;20065;-82
2022/12/28 01:19:19;;;;;;;10.82;4.93;;;;;;;4.38;100.00;101170.56;4993498;28;20563;-82
2022/12/28 01:21:48;;;;;;;12.25;5.97;;;;;;;4.38;100.00;101162.75;4985844;28;20412;-83
2022/12/28 01:24:17;;;;;;;14.38;5.82;;;;;;;4.37;100.00;101151.44;4958124;28;20086;-83
2022/12/28 01:26:46;;;;;;;10.52;5.55;;;;;;;4.39;100.00;101143.66;4995082;28;20054;-84
2022/12/28 01:29:13;;;;;;;12.18;5.60;;;;;;;4.39;100.00;101134.09;4950090;28;20047;-83
2022/12/28 01:31:40;;;;;;;8.27;5.07;;;;;;;4.40;100.00;101138.47;4985690;28;20034;-81
2022/12/28 01:34:12;;;;;;;9.80;5.57;;;;;;;4.40;100.00;101120.19;4978326;28;20770;-84
2022/12/28 01:36:39;;;;;;;10.15;5.60;;;;;;;4.41;100.00;101118.50;4982152;28;20048;-82
2022/12/28 01:39:06;;;;;;;9.38;5.13;;;;;;;4.41;100.00;101108.06;4974237;28;20050;-83
2022/12/28 01:41:37;;;;;;;8.35;4.97;;;;;;;4.42;100.00;101105.50;4998836;28;20046;-83
2022/12/28 01:44:05;;;;;;;;;;;;;;;4.42;100.00;101099.38;4981518;28;20042;-81
2022/12/28 01:46:41;;;;;;;6.07;3.95;;;;;;;4.43;100.00;101090.72;4983306;28;19922;-83
2022/12/28 01:49:42;;;;;;;10.23;4.75;;;;;;;4.42;100.00;101089.84;4997827;28;20054;-83
2022/12/28 01:52:15;;;;;;;11.00;4.90;;;;;;;4.45;100.00;101089.03;4974000;28;20043;-81
2022/12/28 01:54:58;;;;;;;8.45;4.70;;;;;;;4.47;100.00;101069.97;4977134;28;20061;-84
2022/12/28 01:57:49;;;;;;;8.35;4.82;;;;;;;4.48;100.00;101084.81;4992820;28;20058;-83
2022/12/28 02:00:16;;;;;;;;;;;;;;;4.51;100.00;101084.00;4976548;28;20070;-83
2022/12/28 02:02:51;;;;;;;6.20;4.50;;;;;;;4.54;100.00;101065.84;4974685;28;19921;-83
2022/12/28 02:05:21;;;;;;;7.97;4.78;;;;;;;4.55;100.00;101065.00;5000329;28;20042;-82
2022/12/28 02:07:55;;;;;;;8.27;5.18;;;;;;;4.55;100.00;101067.59;5004324;28;20049;-82
2022/12/28 02:10:23;;;;;;;7.30;4.45;;;;;;;4.57;100.00;101073.75;4986472;28;20076;-83
2022/12/28 02:13:13;;;;;;;8.70;4.93;;;;;;;4.58;100.00;101065.09;4982020;28;20046;-82
2022/12/28 02:15:41;;;;;;;6.88;5.28;;;;;;;4.61;100.00;101052.16;4981344;28;20050;-82
2022/12/28 02:18:11;;;;;;;8.45;5.45;;;;;;;4.64;100.00;101053.97;4960841;28;20057;-82
2022/12/28 02:21:12;;;;;;;6.72;4.95;;;;;;;4.63;100.00;101041.75;4978830;28;20051;-82
2022/12/28 02:24:00;;;;;;;8.27;5.35;;;;;;;4.64;100.00;101036.56;4990310;28;20054;-83
2022/12/28 02:26:46;;;;;;;11.55;6.95;;;;;;;4.65;100.00;101030.53;4986816;28;20049;-83
2022/12/28 02:29:51;;;;;;;9.13;5.55;;;;;;;4.64;100.00;101020.03;4981921;28;20046;-83
2022/12/28 02:32:19;;;;;;;8.68;5.28;;;;;;;4.64;100.00;101033.09;4977018;28;20067;-82
2022/12/28 02:34:56;;;;;;;8.10;5.35;;;;;;;4.66;100.00;101000.97;5023898;28;20054;-82
2022/12/28 02:37:29;;;;;;;9.95;5.45;;;;;;;4.67;100.00;101007.09;4991073;28;20085;-82
2022/12/28 02:40:08;;;;;;;9.15;5.22;;;;;;;4.69;100.00;100994.97;4985637;28;20046;-83
2022/12/28 02:42:38;;;;;;;6.82;5.80;;;;;;;4.69;100.00;100979.31;4997495;28;20050;-83
2022/12/28 02:51:28;;;;;;;11.75;6.03;;;;;;;4.69;100.00;100958.41;4991974;28;20122;-83
2022/12/28 02:56:05;;;;;;;10.13;5.63;;;;;;;4.68;100.00;100960.13;4985100;28;20025;-83
2022/12/28 02:57:28;;;;;;;9.80;5.82;;;;;;;4.68;100.00;100935.75;4986591;28;20412;-83
2022/12/28 03:00:02;;;;;;;;;;;;;;;4.67;100.00;100932.25;4991880;28;20443;-82
2022/12/28 03:02:51;;;;;;;6.75;5.60;;;;;;;4.65;100.00;100926.13;5012949;28;19905;-82
2022/12/28 03:08:45;;;;;;;12.43;7.07;;;;;;;4.65;100.00;100915.69;4969949;28;20062;-82
2022/12/28 03:11:21;;;;;;;12.80;6.05;;;;;;;4.65;100.00;100915.69;4972934;28;20050;-82
2022/12/28 03:14:01;;;;;;;8.05;5.65;;;;;;;4.66;100.00;100908.72;4970036;28;20054;-82
2022/12/28 03:31:12;;;;;;;8.68;5.93;;;;;;;4.72;100.00;100903.66;4995618;28;20053;-82
2022/12/28 03:33:51;;;;;;;7.63;6.05;;;;;;;4.74;100.00;100903.72;4980247;28;20093;-82
2022/12/28 03:36:37;;;;;;;8.68;5.82;;;;;;;4.75;100.00;100901.16;4971178;28;20447;-82
2022/12/28 03:39:48;;;;;;;8.23;5.78;;;;;;;4.77;100.00;100894.25;4990527;28;20050;-82
2022/12/28 03:45:26;;;;;;;7.55;5.40;;;;;;;4.80;100.00;100876.06;4980231;28;20065;-81
2022/12/28 03:48:16;;;;;;;9.85;6.10;;;;;;;4.81;100.00;100869.09;4982464;28;20034;-82
2022/12/28 03:50:47;;;;;;;7.75;5.65;;;;;;;4.82;100.00;100863.03;4967830;28;20046;-83
2022/12/28 03:53:21;;;;;;;11.23;6.90;;;;;;;4.84;100.00;100850.91;4973465;28;20047;-82
2022/12/28 03:56:14;;;;;;;6.95;5.65;;;;;;;4.86;100.00;100851.84;4924098;29;20059;-83
2022/12/28 03:58:47;;;;;;;6.28;5.68;;;;;;;4.88;100.00;100844.94;4947893;28;20055;-83
2022/12/28 04:01:18;;;;;;;8.30;6.00;;;;;;;4.90;100.00;100838.00;4959170;28;20054;-83
2022/12/28 04:03:46;;;;;;;8.15;5.80;;;;;;;4.91;100.00;100833.66;4957047;29;20035;-83
2022/12/28 04:06:16;;;;;;;6.00;5.40;;;;;;;4.93;100.00;100835.47;4914571;28;22296;-82
2022/12/28 04:08:44;;;;;;;10.55;5.97;;;;;;;4.97;100.00;100829.50;4940858;29;20078;-82
2022/12/28 04:11:13;;;;;;;7.35;6.47;;;;;;;4.99;100.00;100819.97;4946811;28;20051;-83
2022/12/28 04:13:47;;;;;;;9.95;6.35;;;;;;;5.02;100.00;100816.53;4940768;29;20047;-82
2022/12/28 04:16:16;;;;;;;11.50;6.63;;;;;;;5.04;100.00;100826.19;4972016;28;20043;-83
2022/12/28 04:18:46;;;;;;;8.82;6.50;;;;;;;5.07;100.00;100814.94;4971491;28;20051;-83
2022/12/28 04:21:15;;;;;;;8.65;6.88;;;;;;;5.11;100.00;100802.84;4937670;28;20051;-83
2022/12/28 04:23:44;;;;;;;8.43;6.40;;;;;;;5.13;100.00;100807.25;4953914;28;20047;-82
2022/12/28 04:26:17;;;;;;;10.85;6.95;;;;;;;5.16;100.00;100788.16;4960288;28;20047;-82
2022/12/28 04:28:47;;;;;;;6.68;5.97;;;;;;;5.18;100.00;100797.81;4940476;28;20058;-83
2022/12/28 04:31:34;;;;;;;5.95;5.28;;;;;;;5.22;100.00;100790.94;4958408;28;20051;-82
2022/12/28 04:34:14;;;;;;;10.95;5.90;;;;;;;5.24;100.00;100808.41;4958236;29;20623;-82
2022/12/28 04:36:53;;;;;;;7.10;5.75;;;;;;;5.26;100.00;100793.63;4934181;28;20501;-82
2022/12/28 04:39:22;;;;;;;8.52;6.45;;;;;;;5.30;100.00;100796.34;4956022;29;20058;-83
2022/12/28 04:41:49;;;;;;;5.60;5.07;;;;;;;5.32;100.00;100797.25;4967242;28;20413;-83
2022/12/28 04:44:17;;;;;;;5.40;4.93;;;;;;;5.34;100.00;100800.78;4944189;29;20039;-83
2022/12/28 04:46:44;;;;;;;7.30;5.45;;;;;;;5.36;100.00;100786.91;4967214;28;20063;-84
2022/12/28 04:49:13;;;;;;;8.60;5.78;;;;;;;5.38;100.00;100789.56;4937347;29;20822;-82
2022/12/28 04:51:40;;;;;;;6.43;5.40;;;;;;;5.40;100.00;100778.28;4960444;28;20051;-83
2022/12/28 04:54:13;;;;;;;7.30;5.63;;;;;;;5.41;100.00;100779.19;4963979;28;20046;-82
2022/12/28 04:56:40;;;;;;;6.72;5.22;;;;;;;5.43;100.00;100773.13;5009995;28;20050;-82
2022/12/28 04:59:08;;;;;;;7.53;5.97;;;;;;;5.46;100.00;100769.69;4969718;28;20061;-82
2022/12/28 05:01:36;;;;;;;7.47;5.40;;;;;;;5.47;100.00;100769.72;4995841;28;20736;-83
2022/12/28 05:04:03;;;;;;;5.20;4.78;;;;;;;5.48;100.00;100762.75;4992983;28;20046;-83
2022/12/28 05:06:31;;;;;;;5.97;5.18;;;;;;;5.50;100.00;100757.56;4994883;28;20054;-83
2022/12/28 05:08:58;;;;;;;6.18;4.82;;;;;;;5.51;100.00;100757.63;4963787;28;20038;-82
2022/12/28 05:11:28;;;;;;;5.82;5.22;;;;;;;5.54;100.00;100757.69;4994844;28;20046;-83
2022/12/28 05:13:55;;;;;;;5.50;5.00;;;;;;;5.55;100.00;100755.97;4983881;28;20082;-83
2022/12/28 05:16:24;;;;;;;5.63;5.13;;;;;;;5.56;100.00;100757.75;4995497;28;20046;-83
2022/12/28 05:18:53;;;;;;;6.03;5.05;;;;;;;5.58;100.00;100748.19;4988860;28;20050;-83
2022/12/28 05:21:23;;;;;;;6.05;5.45;;;;;;;5.61;100.00;100756.09;4994945;28;20491;-84
2022/12/28 05:23:52;;;;;;;5.43;4.45;;;;;;;5.62;100.00;100742.19;4971296;28;20057;-83
2022/12/28 05:26:22;;;;;;;5.57;5.07;;;;;;;5.64;100.00;100746.59;4951803;28;20058;-83
2022/12/28 05:28:50;;;;;;;6.53;5.28;;;;;;;5.66;100.00;100751.84;4982306;28;20054;-82
2022/12/28 05:31:20;;;;;;;6.10;5.45;;;;;;;5.68;100.00;100739.69;5009383;28;20054;-82
2022/12/28 05:33:49;;;;;;;6.22;5.47;;;;;;;5.70;100.00;100750.19;4993739;28;20061;-83
2022/12/28 05:36:22;;;;;;;5.78;5.30;;;;;;;5.71;100.00;100751.94;4990157;28;20055;-82
2022/12/28 05:38:49;;;;;;;6.22;5.63;;;;;;;5.73;100.00;100739.78;4955708;28;20053;-81
2022/12/28 05:41:19;;;;;;;5.38;4.88;;;;;;;5.74;100.00;100752.88;4972436;28;20534;-82
2022/12/28 05:43:48;;;;;;;6.25;5.65;;;;;;;5.78;100.00;100746.88;4987891;28;20495;-82
2022/12/28 05:46:29;;;;;;;6.40;5.80;;;;;;;5.81;100.00;100754.78;4994526;28;20557;-82
2022/12/28 05:48:57;;;;;;;4.43;3.75;;;;;;;5.82;100.00;100750.44;4992550;28;20054;-83
2022/12/28 05:51:27;;;;;;;6.72;6.07;;;;;;;5.84;100.00;100738.25;4982828;28;20046;-83
2022/12/28 05:53:56;;;;;;;8.20;6.20;;;;;;;5.87;100.00;100735.72;4997736;28;20417;-82
2022/12/28 05:56:26;;;;;;;7.07;6.35;;;;;;;5.90;100.00;100734.91;4973424;28;20054;-82
2022/12/28 05:58:56;;;;;;;8.75;7.38;;;;;;;5.91;100.00;100727.09;4987580;28;20050;-82
2022/12/28 06:01:32;;;;;;;6.18;5.22;;;;;;;5.93;100.00;100721.88;4969581;28;20046;-82
2022/12/28 06:04:05;;;;;;;7.25;6.40;;;;;;;5.96;100.00;100722.00;4992041;28;20054;-82
2022/12/28 06:06:34;;;;;;;8.38;7.47;;;;;;;5.98;100.00;100717.69;4991534;28;20043;-82
2022/12/28 06:09:02;;;;;;;8.40;7.60;;;;;;;5.99;100.00;100712.47;4975177;28;20057;-82
2022/12/28 06:11:30;;;;;;;8.32;7.40;;;;;;;6.02;100.00;100711.66;4977739;28;20045;-82
2022/12/28 06:14:00;;;;;;;10.20;9.10;;;;;;;6.04;100.00;100709.94;4975919;28;20081;-82
2022/12/28 06:16:29;;;;;;;11.73;8.48;;;;;;;6.07;100.00;100709.09;4973154;28;20057;-82
2022/12/28 06:18:57;;;;;;;11.82;10.18;;;;;;;6.12;100.00;100720.56;4975426;28;20046;-81
2022/12/28 06:21:27;;;;;;;10.55;9.52;;;;;;;6.13;100.00;100709.25;4977713;28;20038;-82
2022/12/28 06:23:58;;;;;;;11.63;10.32;;;;;;;6.16;100.00;100699.72;5008723;28;20046;-82
2022/12/28 06:26:28;;;;;;;13.73;10.32;;;;;;;6.20;100.00;100708.50;4949343;28;20058;-81
2022/12/28 06:28:57;;;;;;;11.57;9.65;;;;;;;6.21;100.00;100703.28;4983273;28;20043;-82
2022/12/28 06:31:26;;;;;;;14.82;11.77;;;;;;;6.24;100.00;100698.13;4966985;28;20058;-82
2022/12/28 06:33:56;;;;;;;15.57;11.93;;;;;;;6.27;100.00;100688.56;4995038;28;20580;-83
2022/12/28 06:36:33;;;;;;;13.52;11.50;;;;;;;6.32;100.00;100694.78;4981160;28;20055;-82
2022/12/28 06:39:04;;;;;;;14.90;12.23;;;;;;;6.34;100.00;100696.56;4996275;28;20042;-82
2022/12/28 06:41:32;;;;;;;13.27;11.88;;;;;;;6.37;100.00;100698.31;4955228;28;20101;-82
2022/12/28 06:43:59;;;;;;;15.75;12.75;;;;;;;6.40;100.00;100701.00;4963262;28;20050;-83
2022/12/28 06:46:29;;;;;;;15.57;12.02;;;;;;;6.42;100.00;100696.69;4984931;28;20046;-82
2022/12/28 06:48:57;;;;;;;16.27;12.52;;;;;;;6.46;100.00;100697.63;4982496;28;20057;-83
2022/12/28 06:51:27;;;;;;;15.73;11.75;;;;;;;6.49;100.00;100690.72;4997320;28;20053;-83
2022/12/28 06:53:55;;;;;;;12.18;10.60;;;;;;;6.47;100.00;100689.81;4990079;28;20073;-82
2022/12/28 06:56:29;;;;;;;15.13;10.50;;;;;;;6.51;100.00;100680.28;4995383;28;20058;-82
2022/12/28 06:58:57;;;;;;;11.52;10.32;;;;;;;6.53;100.00;100689.91;4938450;28;20415;-82
2022/12/28 07:01:36;;;;;;;10.63;9.63;;;;;;;6.54;100.00;100686.44;5001044;28;20051;-82
2022/12/28 07:04:05;;;;;;;11.13;9.52;;;;;;;6.56;100.00;100689.06;4989519;28;20058;-82
2022/12/28 07:06:42;;;;;;;10.95;9.90;;;;;;;6.57;100.00;100685.59;4982957;28;20484;-82
2022/12/28 07:09:15;;;;;;;11.27;9.40;;;;;;;6.59;100.00;100696.97;5002047;28;20053;-82
2022/12/28 07:11:44;;;;;;;10.05;9.10;;;;;;;6.61;100.00;100690.03;5003457;28;20050;-82
2022/12/28 07:14:11;;;;;;;10.40;9.32;;;;;;;6.62;100.00;100689.19;4967943;28;20330;-82
2022/12/28 07:16:39;;;;;;;10.43;8.82;;;;;;;6.62;100.00;100697.91;4972863;28;20049;-81
2022/12/28 07:19:06;;;;;;;8.90;8.02;;;;;;;6.62;100.00;100695.28;4972055;28;20063;-82
2022/12/28 07:21:36;;;;;;;9.05;8.15;;;;;;;6.66;100.00;100692.75;4992407;28;20062;-82
2022/12/28 07:24:04;;;;;;;;;;;;;;;6.66;100.00;100682.25;4996673;28;20050;-82
2022/12/28 07:26:34;;;;;;;11.23;9.27;;;;;;;6.66;100.00;100674.41;4981089;28;19945;-82
2022/12/28 07:29:04;;;;;;;9.57;8.60;;;;;;;6.68;100.00;100691.03;4953375;28;20069;-82
2022/12/28 07:31:39;;;;;;;10.32;9.13;;;;;;;6.70;100.00;100697.16;4997204;28;20053;-83
2022/12/28 07:34:13;;;;;;;12.93;9.80;;;;;;;6.70;100.00;100699.78;4989808;28;20046;-82
2022/12/28 07:36:41;;;;;;;10.38;9.38;;;;;;;6.72;100.00;100703.31;4995468;28;20046;-82
2022/12/28 07:39:09;;;;;;;11.05;8.93;;;;;;;6.74;100.00;100704.22;4995857;28;20046;-82
2022/12/28 07:41:37;;;;;;;10.48;9.48;;;;;;;6.74;100.00;100698.97;4995381;28;20053;-82
2022/12/28 07:44:09;;;;;;;9.52;8.52;;;;;;;6.74;100.00;100696.34;4994239;28;20050;-83
2022/12/28 07:46:37;;;;;;;12.75;9.38;;;;;;;6.76;100.00;100703.38;4954085;28;20052;-82
2022/12/28 07:49:05;;;;;;;11.95;9.00;;;;;;;6.79;100.00;100692.09;4985637;28;20431;-82
2022/12/28 07:51:36;;;;;;;9.73;8.70;;;;;;;6.82;100.00;100713.06;4991586;28;20047;-82
2022/12/28 07:54:05;;;;;;;12.20;9.40;;;;;;;6.84;100.00;100711.34;4975251;28;20049;-82
2022/12/28 07:56:33;;;;;;;10.85;8.55;;;;;;;6.86;100.00;100709.63;4978947;28;20499;-82
2022/12/28 07:59:02;;;;;;;13.07;9.27;;;;;;;6.89;100.00;100709.69;4982445;28;20054;-83
2022/12/28 08:01:32;;;;;;;14.60;10.23;;;;;;;6.91;100.00;100710.59;4960155;28;20058;-84
2022/12/28 08:04:03;;;;;;;11.43;10.23;;;;;;;6.93;100.00;100715.88;4974685;28;20053;-82
2022/12/28 08:06:33;;;;;;;15.45;10.75;;;;;;;6.95;100.00;100725.50;4994992;28;20050;-84
2022/12/28 08:09:02;;;;;;;11.95;9.75;;;;;;;6.97;100.00;100723.78;4994854;28;20882;-84
2022/12/28 08:11:33;;;;;;;17.27;11.52;;;;;;;7.01;100.00;100720.38;4978018;28;20046;-81
2022/12/28 08:14:01;;;;;;;19.85;10.88;;;;;;;7.03;100.00;100717.75;4992824;28;20053;-84
2022/12/28 08:16:33;;;;;;;13.80;11.00;;;;;;;7.06;100.00;100720.44;4951877;28;20046;-81
2022/12/28 08:19:01;;;;;;;16.15;11.13;;;;;;;7.10;100.00;100727.47;4978942;28;20664;-81
2022/12/28 08:21:34;;;;;;;20.17;11.02;;;;;;;7.16;100.00;100731.94;4981286;28;20046;-82
2022/12/28 08:24:03;;;;;;;15.32;11.02;;;;;;;7.21;100.00;100735.53;4991342;28;20178;-81
2022/12/28 08:26:33;;;;;;;17.20;12.18;;;;;;;7.23;100.00;100728.56;4976739;28;20049;-82
2022/12/28 08:29:04;;;;;;;11.52;10.32;;;;;;;7.27;100.00;100701.53;4989940;28;20047;-81
2022/12/28 08:31:37;;;;;;;17.77;10.57;;;;;;;7.30;100.00;100712.06;4950806;28;20038;-81
2022/12/28 08:34:08;;;;;;;13.65;11.85;;;;;;;7.33;100.00;100727.81;5005909;28;20085;-82
2022/12/28 08:36:36;;;;;;;14.00;10.75;;;;;;;7.34;100.00;100726.97;4998560;28;20038;-81
2022/12/28 08:39:04;;;;;;;16.05;11.18;;;;;;;7.36;100.00;100733.13;4989604;28;20061;-82
2022/12/28 08:41:31;;;;;;;14.38;12.05;;;;;;;7.39;100.00;100734.91;4994159;28;20050;-82
2022/12/28 08:43:59;;;;;;;16.52;11.73;;;;;;;7.41;100.00;100746.31;4993664;28;20084;-81
2022/12/28 08:46:29;;;;;;;13.85;11.30;;;;;;;7.44;100.00;100740.22;4990141;28;20058;-82
2022/12/28 08:48:58;;;;;;;22.40;13.50;;;;;;;7.45;100.00;100741.97;4969755;28;20042;-82
2022/12/28 08:51:30;;;;;;;20.48;12.95;;;;;;;7.44;100.00;100741.09;4984258;28;20051;-82
2022/12/28 08:54:00;;;;;;;22.13;13.82;;;;;;;7.44;100.00;100734.97;4978444;28;20555;-82
2022/12/28 08:56:31;;;;;;;16.87;11.73;;;;;;;7.42;100.00;100738.44;4994406;28;20054;-82
2022/12/28 08:59:01;;;;;;;18.35;14.40;;;;;;;7.42;100.00;100738.44;4991370;28;20058;-81
2022/12/28 09:01:31;;;;;;;15.75;13.32;;;;;;;7.42;100.00;100746.31;4993953;28;20061;-83
2022/12/28 09:04:11;;;;;;;15.48;12.93;;;;;;;7.44;100.00;100745.47;4978553;28;20026;-81
2022/12/28 09:06:43;;;;;;;18.15;14.88;;;;;;;7.44;100.00;100755.94;4999638;28;20077;-81
2022/12/28 09:09:13;;;;;;;19.67;14.90;;;;;;;7.42;100.00;100742.81;4959469;28;20046;-81
2022/12/28 09:11:42;;;;;;;16.80;13.60;;;;;;;7.42;100.00;100761.16;4992166;28;20061;-82
2022/12/28 09:14:12;;;;;;;18.65;13.30;;;;;;;7.42;100.00;100754.19;4975387;28;20403;-82
2022/12/28 09:16:51;;;;;;;22.08;15.45;;;;;;;7.44;100.00;100771.69;4977198;28;20046;-82
2022/12/28 09:19:18;;;;;;;18.38;12.98;;;;;;;7.41;100.00;100768.16;4973884;28;20046;-82
2022/12/28 09:21:47;;;;;;;23.98;15.50;;;;;;;7.45;100.00;100770.81;4980352;28;20072;-82
2022/12/28 09:24:16;;;;;;;17.40;12.60;;;;;;;7.42;100.00;100764.66;5005872;28;20066;-81
2022/12/28 09:26:44;;;;;;;17.60;13.02;;;;;;;7.41;100.00;100754.19;4976217;28;20424;-81
2022/12/28 09:29:12;;;;;;;13.45;11.48;;;;;;;7.40;100.00;100768.13;4977395;28;20046;-81
2022/12/28 09:31:43;;;;;;;12.50;9.65;;;;;;;7.39;100.00;100768.97;4977566;28;20074;-82
2022/12/28 09:34:12;;;;;;;11.80;8.93;;;;;;;7.39;100.00;100764.63;4964297;28;20050;-82
2022/12/28 09:37:01;;;;;;;8.02;7.32;;;;;;;7.38;100.00;100765.47;4993061;28;20042;-82
2022/12/28 09:39:29;;;;;;;11.98;8.15;;;;;;;7.38;100.00;100762.84;4965514;28;20392;-81
2022/12/28 09:42:23;;;;;;;10.85;8.05;;;;;;;7.40;100.00;100755.03;4975222;28;20047;-82
2022/12/28 09:45:07;;;;;;;11.02;7.30;;;;;;;7.41;100.00;100746.31;4977922;28;20059;-81
2022/12/28 09:47:46;;;;;;;8.35;7.38;;;;;;;7.42;100.00;100746.31;4993316;28;20043;-81
2022/12/28 09:50:17;;;;;;;8.02;6.63;;;;;;;7.43;100.00;100749.84;4989196;28;20052;-81
2022/12/28 09:53:04;;;;;;;7.22;6.45;;;;;;;7.45;100.00;100747.22;5008539;28;20496;-82
2022/12/28 09:55:34;;;;;;;7.90;6.70;;;;;;;7.45;100.00;100753.34;4956723;28;20054;-82
2022/12/28 09:58:10;;;;;;;8.07;6.65;;;;;;;7.47;100.00;100762.13;4995366;28;20046;-82
2022/12/28 10:00:46;;;;;;;8.05;6.85;;;;;;;7.48;100.00;100750.75;4981540;28;20053;-80
2022/12/28 10:03:35;;;;;;;6.07;5.47;;;;;;;7.50;100.00;100756.91;5010612;28;20054;-81
2022/12/28 10:06:11;;;;;;;6.57;5.75;;;;;;;7.51;100.00;100757.81;4956283;28;20042;-82
2022/12/28 10:08:43;;;;;;;8.07;5.80;;;;;;;7.51;100.00;100755.19;4998208;28;20420;-83
2022/12/28 10:11:17;;;;;;;5.88;5.32;;;;;;;7.50;100.00;100756.91;4988288;28;20050;-82
2022/12/28 10:13:47;;;;;;;7.82;5.72;;;;;;;7.51;100.00;100755.19;4997795;28;20589;-82
2022/12/28 10:16:26;;;;;;;9.43;6.15;;;;;;;7.52;100.00;100756.94;4999664;28;20046;-82
2022/12/28 10:18:54;;;;;;;6.30;5.63;;;;;;;7.53;100.00;100750.84;4995566;28;20046;-82
2022/12/28 10:21:24;;;;;;;7.53;5.95;;;;;;;7.55;100.00;100754.38;4955558;28;20059;-82
2022/12/28 10:24:01;;;;;;;7.82;6.30;;;;;;;7.57;100.00;100748.28;4996707;28;20050;-82
2022/12/28 10:26:49;;;;;;;7.28;5.78;;;;;;;7.60;100.00;100747.44;4968073;28;20046;-83
2022/12/28 10:29:19;;;;;;;11.10;6.40;;;;;;;7.63;100.00;100751.84;4996023;28;20057;-82
2022/12/28 10:32:05;;;;;;;7.53;6.53;;;;;;;7.63;100.00;100743.97;4992482;28;20047;-82
2022/12/28 10:34:34;;;;;;;10.05;6.32;;;;;;;7.64;100.00;100740.47;4968786;28;20050;-82
2022/12/28 10:37:15;;;;;;;7.93;6.07;;;;;;;7.64;100.00;100750.97;4980191;28;20061;-82
2022/12/28 10:39:54;;;;;;;7.32;5.95;;;;;;;7.64;100.00;100748.34;4995948;28;20053;-82
2022/12/28 10:42:39;;;;;;;8.02;6.28;;;;;;;7.65;100.00;100751.00;4989145;28;20062;-82
2022/12/28 10:45:20;;;;;;;9.10;6.63;;;;;;;7.67;100.00;100744.03;4973066;28;20058;-82
2022/12/28 10:47:51;;;;;;;12.15;6.82;;;;;;;7.68;100.00;100755.41;4993677;28;20050;-83
2022/12/28 10:50:43;;;;;;;12.02;8.88;;;;;;;7.68;100.00;100748.44;4950796;28;20491;-82
2022/12/28 10:53:24;;;;;;;8.90;6.93;;;;;;;7.69;100.00;100728.31;5001560;28;20061;-81
2022/12/28 10:56:10;;;;;;;;;;;;;;;7.68;100.00;100730.06;4998296;28;20054;-82
2022/12/28 10:58:41;;;;;;;9.35;6.25;;;;;;;7.69;100.00;100723.94;4975251;28;19929;-82
2022/12/28 11:01:11;;;;;;;6.75;5.22;;;;;;;7.69;100.00;100720.44;4994053;28;20057;-81
2022/12/28 11:03:43;;;;;;;;;;;;;;;7.69;100.00;100726.56;4995230;28;20050;-80
2022/12/28 11:06:10;;;;;;;7.10;5.80;;;;;;;7.70;100.00;100722.22;4970676;28;19921;-83
2022/12/28 11:09:19;;;;;;;7.07;5.80;;;;;;;7.71;100.00;100713.47;4966859;28;20058;-83
2022/12/28 11:11:48;;;;;;;6.35;5.20;;;;;;;7.71;100.00;100713.47;4970457;28;20047;-81
2022/12/28 11:14:33;;;;;;;8.10;5.70;;;;;;;7.72;100.00;100708.25;4987581;28;20046;-81
2022/12/28 11:17:23;;;;;;;8.93;5.30;;;;;;;7.72;100.00;100699.50;4991592;28;20057;-81
2022/12/28 11:19:54;;;;;;;7.90;6.30;;;;;;;7.72;100.00;100697.75;4995288;28;20061;-81
2022/12/28 11:22:28;;;;;;;9.98;6.82;;;;;;;7.72;100.00;100696.88;4941616;28;20492;-81
2022/12/28 11:24:59;;;;;;;10.10;6.65;;;;;;;7.73;100.00;100698.63;4990433;28;20042;-80
2022/12/28 11:27:27;;;;;;;10.85;6.97;;;;;;;7.73;100.00;100693.38;4979270;28;20043;-83
2022/12/28 11:29:55;;;;;;;9.48;6.97;;;;;;;7.73;100.00;100688.16;4980586;28;20051;-83
2022/12/28 11:32:32;;;;;;;8.77;6.38;;;;;;;7.73;100.00;100675.94;4995033;28;20046;-82
2022/12/28 11:35:00;;;;;;;7.80;6.30;;;;;;;7.75;100.00;100683.78;4994378;28;20405;-81
2022/12/28 11:37:27;;;;;;;9.00;6.70;;;;;;;7.74;100.00;100676.81;4960531;28;20053;-82
2022/12/28 11:39:57;;;;;;;8.15;5.93;;;;;;;7.75;100.00;100679.44;4982043;28;20045;-81
2022/12/28 11:42:30;;;;;;;5.03;4.50;;;;;;;7.74;100.00;100669.81;4976605;28;20047;-83
2022/12/28 11:45:35;;;;;;;5.97;4.50;;;;;;;7.75;100.00;100673.31;4976752;28;20062;-80
2022/12/28 11:48:37;;;;;;;6.43;4.80;;;;;;;7.75;100.00;100668.06;4978472;28;20046;-82
2022/12/28 11:51:13;;;;;;;5.07;4.47;;;;;;;7.76;100.00;100660.22;4980089;28;20053;-81
2022/12/28 11:53:43;;;;;;;5.40;4.70;;;;;;;7.78;100.00;100662.84;4962755;28;20055;-81
2022/12/28 11:56:15;;;;;;;4.60;4.20;;;;;;;7.78;100.00;100655.84;4968769;28;20377;-81
2022/12/28 11:58:57;;;;;;;5.10;4.60;;;;;;;7.79;100.00;100655.00;4948418;28;20058;-81
2022/12/28 12:01:32;;;;;;;4.95;4.40;;;;;;;7.80;100.00;100648.88;4969632;28;20055;-81
2022/12/28 12:04:04;;;;;;;4.00;3.60;;;;;;;7.83;100.00;100640.19;4975600;28;20127;-81
2022/12/28 12:06:41;;;;;;;4.72;4.32;;;;;;;7.85;100.00;100642.84;4990085;28;20054;-83
2022/12/28 12:09:20;;;;;;;4.30;4.00;;;;;;;7.86;100.00;100636.72;4947663;28;20050;-82
2022/12/28 12:11:53;;;;;;;4.68;4.20;;;;;;;7.88;100.00;100638.50;4985791;28;20054;-83
2022/12/28 12:14:26;;;;;;;4.00;3.70;;;;;;;7.90;100.00;100630.63;4966065;28;20061;-82
2022/12/28 12:17:04;;;;;;;3.65;3.35;;;;;;;7.89;100.00;100640.25;4977533;28;20062;-82